Time;durP1;ratioP1;P1;durP2;ratioP2;P2;SDS_P1;SDS_P2;PMS_P1;PMS_P2;Temp;Humidity;BMP_temperature;BMP_pressure;BME280_temperature;BME280_humidity;BME280_pressure;Samples;Min_cycle;Max_cycle;Signal;HPM_P1;HPM_P2
2023/11/03 00:00:45;;;;;;;4.60;1.23;;;;;;;10.13;77.74;97218.25;10203293;28;20141;-67
2023/11/03 00:05:46;;;;;;;3.90;1.13;;;;;;;9.99;78.14;97214.69;10200480;28;20051;-66
2023/11/03 00:10:48;;;;;;;7.70;1.30;;;;;;;9.98;77.98;97197.09;10202786;28;20066;-66
2023/11/03 00:15:49;;;;;;;4.55;1.10;;;;;;;9.86;78.33;97192.31;10196655;28;20054;-67
2023/11/03 00:20:51;;;;;;;2.13;0.70;;;;;;;9.93;78.20;97195.00;10194433;28;20156;-68
2023/11/03 00:25:52;;;;;;;5.07;1.02;;;;;;;9.83;78.42;97203.34;10202054;28;20145;-66
2023/11/03 00:30:54;;;;;;;3.38;1.05;;;;;;;9.88;78.23;97184.97;10201260;28;20054;-71
2023/11/03 00:35:55;;;;;;;2.42;0.80;;;;;;;9.74;78.38;97161.97;10199233;28;20055;-67
2023/11/03 00:40:56;;;;;;;4.47;0.90;;;;;;;9.86;78.33;97168.41;10200570;28;20641;-67
2023/11/03 00:45:58;;;;;;;3.38;1.23;;;;;;;9.66;78.15;97119.63;10196561;28;20059;-66
2023/11/03 00:50:59;;;;;;;3.08;1.00;;;;;;;9.86;78.84;97157.78;10200662;28;20051;-66
2023/11/03 00:56:03;;;;;;;3.72;1.00;;;;;;;9.91;78.93;97144.72;10201114;28;20118;-67
2023/11/03 01:01:07;;;;;;;1.63;0.60;;;;;;;9.83;78.77;97134.25;10207314;28;20986;-67
2023/11/03 01:06:09;;;;;;;2.78;0.65;;;;;;;9.79;78.91;97148.94;10202102;28;20067;-65
2023/11/03 01:11:12;;;;;;;2.47;0.73;;;;;;;9.82;79.01;97148.56;10211301;28;20114;-65
2023/11/03 01:16:13;;;;;;;3.65;0.73;;;;;;;9.76;78.84;97132.56;10226723;28;20459;-66
2023/11/03 01:21:15;;;;;;;2.70;0.80;;;;;;;9.83;78.48;97138.75;10209419;28;20099;-67
2023/11/03 01:26:17;;;;;;;3.88;1.20;;;;;;;9.78;78.65;97141.97;10207846;28;20051;-66
2023/11/03 01:31:19;;;;;;;5.63;0.60;;;;;;;9.81;78.81;97148.75;10205595;28;20054;-65
2023/11/03 01:36:20;;;;;;;4.85;1.13;;;;;;;9.65;78.85;97123.31;10206378;28;20051;-65
2023/11/03 01:41:22;;;;;;;4.15;0.90;;;;;;;9.88;79.08;97163.72;10206375;28;20055;-67
2023/11/03 01:46:24;;;;;;;4.95;0.90;;;;;;;9.86;78.76;97159.59;10203628;28;20055;-68
2023/11/03 01:51:25;;;;;;;2.65;1.00;;;;;;;9.82;79.42;97169.81;10202397;28;20063;-66
2023/11/03 01:56:28;;;;;;;3.05;1.10;;;;;;;9.85;79.34;97164.09;10205891;28;20094;-66
2023/11/03 02:01:32;;;;;;;4.07;1.30;;;;;;;9.72;79.58;97140.09;10205914;28;20079;-66
2023/11/03 02:06:33;;;;;;;4.25;0.93;;;;;;;9.81;79.32;97160.19;10206414;28;20047;-66
2023/11/03 02:11:42;;;;;;;4.07;0.98;;;;;;;9.89;79.06;97173.34;10206755;28;20047;-66
2023/11/03 02:16:44;;;;;;;4.45;1.05;;;;;;;9.73;79.33;97171.78;10204404;28;20083;-67
2023/11/03 02:21:45;;;;;;;2.15;0.90;;;;;;;9.76;79.31;97173.25;10204307;28;20059;-67
2023/11/03 02:26:47;;;;;;;2.78;0.47;;;;;;;9.85;78.52;97181.88;10203947;28;20608;-67
2023/11/03 02:31:48;;;;;;;2.20;0.77;;;;;;;9.87;78.57;97174.53;10204765;28;20064;-66
2023/11/03 02:36:50;;;;;;;4.20;0.93;;;;;;;9.83;78.25;97163.50;10202916;28;20058;-65
2023/11/03 02:41:51;;;;;;;1.63;0.50;;;;;;;9.77;77.77;97161.59;10203799;28;20059;-66
2023/11/03 02:46:53;;;;;;;2.47;0.70;;;;;;;9.81;77.90;97157.53;10199445;28;20675;-65
2023/11/03 02:51:54;;;;;;;2.58;0.93;;;;;;;9.95;76.92;97186.84;10205755;28;20179;-66
2023/11/03 02:56:55;;;;;;;1.83;0.50;;;;;;;9.84;76.80;97162.44;10193892;28;20048;-66
2023/11/03 03:01:57;;;;;;;4.15;0.80;;;;;;;9.91;76.08;97175.78;10203538;28;20069;-68
2023/11/03 03:06:58;;;;;;;2.40;0.57;;;;;;;9.89;75.68;97176.00;10196697;28;20066;-67
2023/11/03 03:12:00;;;;;;;2.25;0.57;;;;;;;9.87;75.72;97177.19;10203123;28;20698;-67
2023/11/03 03:17:01;;;;;;;7.28;0.95;;;;;;;9.93;75.57;97176.41;10201304;28;20105;-67
2023/11/03 03:22:02;;;;;;;5.50;0.95;;;;;;;10.03;75.14;97178.72;10203020;28;20082;-67
2023/11/03 03:27:04;;;;;;;2.33;0.80;;;;;;;9.99;74.23;97169.50;10199721;28;20054;-67
2023/11/03 03:32:05;;;;;;;4.40;1.80;;;;;;;10.05;73.96;97163.41;10201892;28;20102;-66
2023/11/03 03:37:07;;;;;;;4.82;0.85;;;;;;;9.98;74.25;97173.16;10198760;28;20135;-66
2023/11/03 03:42:08;;;;;;;3.08;0.82;;;;;;;10.05;73.86;97200.59;10198283;28;20055;-65
2023/11/03 03:47:10;;;;;;;4.82;0.93;;;;;;;10.05;73.58;97190.78;10200232;28;20055;-67
2023/11/03 03:52:11;;;;;;;3.00;0.52;;;;;;;10.09;73.92;97201.88;10199799;28;20059;-67
2023/11/03 03:57:13;;;;;;;3.80;0.77;;;;;;;10.10;73.19;97198.19;10202119;28;20058;-67
2023/11/03 04:02:14;;;;;;;3.47;0.60;;;;;;;10.02;72.87;97196.50;10202765;28;20074;-66
2023/11/03 04:07:18;;;;;;;3.53;0.80;;;;;;;10.09;73.06;97199.22;10201070;28;20788;-66
2023/11/03 04:12:19;;;;;;;6.88;0.88;;;;;;;10.03;72.79;97192.03;10198600;28;20126;-65
2023/11/03 04:17:20;;;;;;;5.30;0.70;;;;;;;10.00;72.73;97203.84;10201777;28;20106;-65
2023/11/03 04:22:22;;;;;;;2.83;0.60;;;;;;;10.16;73.35;97218.66;10202347;28;20051;-68
2023/11/03 04:27:23;;;;;;;3.78;0.90;;;;;;;10.22;73.57;97225.03;10200404;28;20130;-68
2023/11/03 04:32:25;;;;;;;3.65;0.60;;;;;;;10.08;73.33;97218.81;10204922;28;20418;-68
2023/11/03 04:37:26;;;;;;;3.00;0.50;;;;;;;10.19;73.54;97234.25;10209311;28;20062;-67
2023/11/03 04:42:28;;;;;;;3.58;1.08;;;;;;;10.07;73.82;97219.81;10204854;28;20055;-70
2023/11/03 04:47:30;;;;;;;4.45;0.70;;;;;;;10.11;74.04;97209.66;10205444;28;20051;-66
2023/11/03 04:52:31;;;;;;;3.70;0.98;;;;;;;10.00;74.20;97193.22;10207411;28;20047;-66
2023/11/03 04:57:33;;;;;;;5.35;1.88;;;;;;;10.05;74.05;97189.97;10202454;28;20581;-66
2023/11/03 05:02:35;;;;;;;1.30;0.50;;;;;;;10.08;74.07;97198.38;10209136;28;20561;-67
2023/11/03 05:07:40;;;;;;;1.92;0.63;;;;;;;10.13;73.35;97197.78;10209540;28;20413;-67
2023/11/03 05:12:41;;;;;;;2.22;0.70;;;;;;;10.02;73.64;97185.88;10208497;28;20055;-66
2023/11/03 05:17:44;;;;;;;3.45;1.20;;;;;;;10.16;74.02;97181.44;10205707;28;20157;-68
2023/11/03 05:22:46;;;;;;;1.67;0.73;;;;;;;10.21;74.18;97194.19;10208609;28;20063;-66
2023/11/03 05:27:47;;;;;;;3.35;0.80;;;;;;;10.27;73.88;97183.56;10208211;28;20100;-68
2023/11/03 05:32:49;;;;;;;4.00;1.27;;;;;;;10.23;73.26;97176.19;10208791;28;20490;-67
2023/11/03 05:37:51;;;;;;;4.20;0.80;;;;;;;10.23;73.54;97179.66;10207041;28;20063;-66
2023/11/03 05:42:53;;;;;;;3.28;0.80;;;;;;;10.20;73.69;97197.84;10207643;28;20722;-66
2023/11/03 05:47:54;;;;;;;2.53;0.43;;;;;;;10.22;73.99;97220.56;10205907;28;20050;-66
2023/11/03 05:52:58;;;;;;;2.43;0.70;;;;;;;10.10;73.98;97214.13;10206995;28;20047;-66
2023/11/03 05:57:59;;;;;;;5.85;1.33;;;;;;;10.15;73.93;97224.16;10194834;28;20603;-67
2023/11/03 06:03:01;;;;;;;3.15;1.08;;;;;;;10.11;74.54;97220.28;10201555;28;20180;-66
2023/11/03 06:08:02;;;;;;;3.00;1.08;;;;;;;10.14;73.97;97236.66;10199984;23;20054;-58
2023/11/03 06:13:05;;;;;;;2.42;0.60;;;;;;;10.16;74.33;97250.56;10181849;28;20141;-59
2023/11/03 06:18:07;;;;;;;4.18;0.80;;;;;;;10.12;74.32;97273.25;10153040;28;20066;-59
2023/11/03 06:23:08;;;;;;;2.13;1.10;;;;;;;10.16;74.99;97279.78;10168548;28;20435;-59
2023/11/03 06:28:12;;;;;;;3.70;0.75;;;;;;;10.17;74.83;97273.47;10198831;28;20054;-59
2023/11/03 06:33:14;;;;;;;2.35;0.63;;;;;;;10.08;74.77;97274.63;10193889;28;20051;-58
2023/11/03 06:38:16;;;;;;;3.75;0.82;;;;;;;10.09;75.07;97277.09;10197354;28;20055;-58
2023/11/03 06:43:18;;;;;;;3.83;0.45;;;;;;;10.01;75.32;97269.28;10181545;28;20063;-59
2023/11/03 06:48:20;;;;;;;3.85;0.93;;;;;;;9.89;75.53;97292.06;10184653;28;20062;-58
2023/11/03 06:53:24;;;;;;;4.70;0.85;;;;;;;9.88;75.89;97296.56;10168345;28;20428;-60
2023/11/03 06:58:25;;;;;;;4.17;0.67;;;;;;;9.76;75.92;97297.25;10196604;28;20065;-56
2023/11/03 07:03:27;;;;;;;2.53;0.98;;;;;;;9.80;76.49;97315.25;10176714;28;20059;-59
2023/11/03 07:08:30;;;;;;;4.53;1.10;;;;;;;9.89;76.08;97319.47;10198262;28;20480;-58
2023/11/03 07:13:31;;;;;;;6.10;1.08;;;;;;;9.92;76.07;97323.56;10172617;28;20094;-58
2023/11/03 07:18:42;;;;;;;3.03;0.60;;;;;;;9.99;76.07;97328.94;10389964;27;20395;-58
2023/11/03 07:23:49;;;;;;;5.07;1.00;;;;;;;10.05;76.19;97322.84;10417193;28;20049;-58
2023/11/03 07:28:52;;;;;;;4.82;0.98;;;;;;;10.04;76.22;97332.69;10413197;28;20044;-57
2023/11/03 07:33:55;;;;;;;3.17;0.75;;;;;;;9.98;76.43;97338.72;10421276;28;20166;-58
2023/11/03 07:39:01;;;;;;;6.00;1.00;;;;;;;9.88;76.82;97333.75;10415987;28;20057;-59
2023/11/03 07:44:03;;;;;;;3.30;1.23;;;;;;;9.96;76.57;97345.28;10418700;28;20095;-58
2023/11/03 07:49:05;;;;;;;2.35;0.85;;;;;;;9.93;76.97;97350.97;10418841;28;20799;-58
2023/11/03 07:54:07;;;;;;;4.32;0.75;;;;;;;9.89;76.48;97367.28;10426238;28;20445;-58
2023/11/03 07:59:09;;;;;;;5.68;1.55;;;;;;;10.03;76.57;97378.84;10424154;28;20053;-58
2023/11/03 08:04:11;;;;;;;5.43;0.82;;;;;;;10.04;76.45;97390.31;10415357;28;20319;-56
2023/11/03 08:09:14;;;;;;;8.00;1.50;;;;;;;9.94;77.04;97405.72;10419650;28;20060;-57
2023/11/03 08:14:16;;;;;;;4.63;1.05;;;;;;;10.01;77.11;97422.56;10422572;28;20159;-58
2023/11/03 08:19:18;;;;;;;7.05;1.40;;;;;;;9.95;77.42;97418.00;10418304;28;20053;-59
2023/11/03 08:24:21;;;;;;;4.72;1.00;;;;;;;10.01;77.00;97425.22;10406353;28;20049;-58
2023/11/03 08:29:22;;;;;;;3.08;0.93;;;;;;;10.12;76.82;97427.41;10393407;28;20543;-58
2023/11/03 08:34:24;;;;;;;5.13;0.90;;;;;;;10.21;76.60;97444.06;10400998;28;20041;-57
2023/11/03 08:39:27;;;;;;;4.15;1.05;;;;;;;10.16;76.52;97446.44;10390364;28;20130;-56
2023/11/03 08:44:31;;;;;;;5.63;0.90;;;;;;;10.18;76.79;97434.63;10393298;28;20061;-59
2023/11/03 08:49:32;;;;;;;2.22;1.15;;;;;;;10.37;76.35;97432.34;10390473;28;20052;-55
2023/11/03 08:54:34;;;;;;;4.95;1.10;;;;;;;10.21;76.04;97402.31;10395482;28;20723;-57
2023/11/03 08:59:37;;;;;;;5.55;0.80;;;;;;;10.52;75.37;97446.38;10391339;28;20061;-57
2023/11/03 09:04:39;;;;;;;5.40;1.30;;;;;;;10.63;74.73;97447.72;10391143;28;22177;-59
2023/11/03 09:09:41;;;;;;;2.92;0.82;;;;;;;10.78;73.77;97434.31;10386653;28;21240;-58
2023/11/03 09:14:43;;;;;;;4.10;1.35;;;;;;;10.96;73.60;97441.81;10385325;28;20075;-60
2023/11/03 09:19:45;;;;;;;3.20;0.60;;;;;;;11.07;73.16;97430.63;10386865;28;20126;-62
2023/11/03 09:24:47;;;;;;;2.75;0.90;;;;;;;10.98;72.72;97430.97;10394476;28;20066;-58
2023/11/03 09:29:49;;;;;;;2.17;0.75;;;;;;;10.99;72.63;97430.78;10386814;28;20045;-59
2023/11/03 09:34:52;;;;;;;4.95;0.98;;;;;;;10.99;73.24;97441.44;10393405;28;20425;-59
2023/11/03 09:39:54;;;;;;;3.75;1.08;;;;;;;10.94;73.70;97438.50;10388512;28;20940;-59
2023/11/03 09:44:57;;;;;;;2.42;0.52;;;;;;;11.10;73.57;97451.50;10382802;28;20136;-59
2023/11/03 09:49:59;;;;;;;3.22;0.88;;;;;;;11.09;72.62;97449.06;10385192;28;21009;-59
2023/11/03 09:55:08;;;;;;;2.00;0.73;;;;;;;11.07;72.85;97453.75;10369418;28;20642;-59
2023/11/03 10:00:16;;;;;;;3.20;1.00;;;;;;;11.13;72.84;97466.28;10374597;28;20052;-57
2023/11/03 10:05:18;;;;;;;5.38;0.70;;;;;;;10.86;72.73;97436.81;10348010;28;20049;-58
2023/11/03 10:10:22;;;;;;;5.78;1.10;;;;;;;11.07;72.95;97449.25;10364491;28;20052;-58
2023/11/03 10:15:26;;;;;;;5.63;1.87;;;;;;;11.11;73.03;97457.69;10370933;28;20045;-60
2023/11/03 10:20:29;;;;;;;5.10;1.58;;;;;;;11.05;73.05;97424.66;10377095;28;20365;-59
2023/11/03 10:25:32;;;;;;;4.00;1.27;;;;;;;11.11;71.97;97455.84;10370990;28;20061;-61
2023/11/03 10:30:37;;;;;;;3.90;0.90;;;;;;;11.15;72.61;97456.25;10376863;28;20536;-59
2023/11/03 10:35:38;;;;;;;2.03;0.80;;;;;;;11.08;72.33;97426.09;10371566;28;20068;-60
2023/11/03 10:40:42;;;;;;;2.90;1.00;;;;;;;11.20;71.75;97443.19;10371817;28;20636;-58
2023/11/03 10:45:53;;;;;;;2.72;0.98;;;;;;;11.25;70.91;97459.38;10378346;28;20941;-58
2023/11/03 10:51:03;;;;;;;4.82;0.93;;;;;;;11.25;70.68;97456.72;10382469;28;20053;-58
2023/11/03 10:56:10;;;;;;;5.50;1.15;;;;;;;11.33;70.80;97455.75;10354600;28;20679;-60
2023/11/03 11:01:49;;;;;;;3.95;1.00;;;;;;;11.27;70.39;97453.88;10370737;28;20053;-59
2023/11/03 11:07:09;;;;;;;3.10;0.98;;;;;;;11.20;70.51;97429.88;10365311;28;20517;-59
2023/11/03 11:12:13;;;;;;;4.65;1.00;;;;;;;11.34;70.41;97444.06;10365631;28;20056;-59
2023/11/03 11:17:35;;;;;;;2.78;1.00;;;;;;;11.31;69.63;97442.63;10364387;28;20083;-57
2023/11/03 11:22:40;;;;;;;3.70;0.90;;;;;;;11.23;69.74;97449.94;10376380;28;20565;-58
2023/11/03 11:27:49;;;;;;;;;;;;;;;11.34;69.93;97445.94;10365413;28;20076;-57
2023/11/03 11:32:55;;;;;;;4.00;0.77;;;;;;;11.21;69.70;97444.00;10365990;28;20553;-58
2023/11/03 11:37:57;;;;;;;4.03;1.15;;;;;;;11.27;69.95;97446.72;10364516;28;20476;-59
2023/11/03 11:43:01;;;;;;;4.47;0.82;;;;;;;11.51;68.19;97449.88;10357579;28;20444;-59
2023/11/03 11:48:21;;;;;;;3.40;0.80;;;;;;;11.97;65.22;97449.28;10371085;28;20144;-59
2023/11/03 11:53:27;;;;;;;3.22;1.08;;;;;;;12.37;64.25;97467.22;10355914;28;20115;-57
2023/11/03 11:58:29;;;;;;;3.13;0.85;;;;;;;12.23;64.83;97450.34;10356479;28;20053;-59
2023/11/03 12:03:39;;;;;;;4.72;0.50;;;;;;;12.30;62.27;97469.84;10341613;28;20101;-58
2023/11/03 12:08:40;;;;;;;5.47;1.08;;;;;;;12.11;63.10;97467.97;10377610;28;20147;-57
2023/11/03 12:13:42;;;;;;;5.25;0.95;;;;;;;11.96;63.66;97466.28;10378144;28;20056;-56
2023/11/03 12:18:44;;;;;;;4.72;0.95;;;;;;;11.83;64.23;97463.56;10356751;28;20045;-57
2023/11/03 12:23:48;;;;;;;4.53;0.85;;;;;;;11.76;63.37;97454.72;10375928;28;21156;-58
2023/11/03 12:28:49;;;;;;;3.07;1.00;;;;;;;11.88;64.09;97465.63;10377277;28;20045;-57
2023/11/03 12:33:59;;;;;;;3.22;0.90;;;;;;;12.37;63.08;97465.34;10351483;28;20055;-57
2023/11/03 12:39:02;;;;;;;6.55;1.45;;;;;;;12.33;62.72;97463.31;10377408;28;20037;-57
2023/11/03 12:44:05;;;;;;;2.72;0.85;;;;;;;12.19;62.80;97462.47;10381540;28;20124;-57
2023/11/03 12:49:07;;;;;;;4.17;1.10;;;;;;;12.09;62.88;97462.03;10378937;28;20059;-56
2023/11/03 12:54:16;;;;;;;5.93;1.60;;;;;;;11.90;63.96;97453.72;10374372;28;20181;-57
2023/11/03 12:59:21;;;;;;;5.30;1.10;;;;;;;11.90;63.88;97461.72;10371880;28;20049;-58
2023/11/03 13:04:26;;;;;;;4.35;1.30;;;;;;;11.96;64.31;97460.94;10369839;28;20913;-58
2023/11/03 13:09:29;;;;;;;6.85;1.33;;;;;;;12.01;65.02;97461.19;10376171;28;20588;-57
2023/11/03 13:14:30;;;;;;;4.57;1.48;;;;;;;12.97;61.59;97469.91;10360510;28;20140;-59
2023/11/03 13:19:36;;;;;;;5.43;1.10;;;;;;;12.86;61.11;97483.84;10366422;28;20087;-57
2023/11/03 13:24:42;;;;;;;6.55;1.50;;;;;;;14.01;57.64;97464.66;10381534;28;20076;-58
2023/11/03 13:29:46;;;;;;;4.50;1.38;;;;;;;15.64;52.39;97472.00;10377807;28;20259;-58
2023/11/03 13:34:47;;;;;;;3.10;0.80;;;;;;;16.09;50.39;97479.72;10369476;28;20079;-57
2023/11/03 13:39:50;;;;;;;4.30;0.98;;;;;;;14.79;51.61;97471.59;10376543;28;20053;-59
2023/11/03 13:44:51;;;;;;;3.65;1.20;;;;;;;14.60;53.49;97489.41;10371093;28;20739;-58
2023/11/03 13:49:54;;;;;;;4.85;1.25;;;;;;;15.05;51.75;97491.16;10373327;28;20044;-57
2023/11/03 13:55:08;;;;;;;5.25;1.23;;;;;;;15.64;50.05;97513.06;10372556;28;20133;-56
2023/11/03 14:00:13;;;;;;;6.80;1.02;;;;;;;16.22;49.38;97517.13;10372879;28;20909;-57
2023/11/03 14:05:15;;;;;;;6.10;1.30;;;;;;;17.38;47.01;97513.28;10374923;28;20052;-57
2023/11/03 14:10:18;;;;;;;2.95;0.85;;;;;;;18.65;43.55;97515.31;10373044;28;20065;-56
2023/11/03 14:15:22;;;;;;;2.77;0.93;;;;;;;18.91;42.16;97516.59;10347489;28;20053;-57
2023/11/03 14:20:23;;;;;;;4.43;0.90;;;;;;;18.42;42.96;97509.00;10364694;28;20452;-58
2023/11/03 14:25:25;;;;;;;5.03;1.13;;;;;;;17.67;44.37;97522.28;10366691;28;20048;-57
2023/11/03 14:30:28;;;;;;;5.32;0.93;;;;;;;15.89;49.05;97539.81;10364401;28;20090;-58
2023/11/03 14:35:29;;;;;;;4.70;1.30;;;;;;;14.80;52.36;97532.16;10362458;28;20053;-57
2023/11/03 14:40:31;;;;;;;5.78;0.98;;;;;;;15.65;51.09;97548.72;10375464;28;20135;-58
2023/11/03 14:45:33;;;;;;;2.83;1.17;;;;;;;14.94;51.86;97548.94;10374834;28;20049;-57
2023/11/03 14:50:35;;;;;;;5.63;1.25;;;;;;;13.90;54.50;97562.44;10357092;28;20128;-58
2023/11/03 14:55:37;;;;;;;3.47;1.08;;;;;;;13.47;57.07;97564.78;10374323;28;20046;-57
2023/11/03 15:00:44;;;;;;;3.63;1.13;;;;;;;13.41;57.22;97561.91;10369854;28;20049;-56
2023/11/03 15:05:48;;;;;;;4.28;1.50;;;;;;;13.35;58.19;97575.28;10373193;28;20079;-58
2023/11/03 15:10:51;;;;;;;7.10;1.75;;;;;;;13.14;58.44;97576.28;10372421;28;20071;-58
2023/11/03 15:15:54;;;;;;;5.15;1.23;;;;;;;13.00;59.00;97578.97;10361051;28;20053;-57
2023/11/03 15:20:56;;;;;;;4.30;1.20;;;;;;;12.91;59.57;97582.84;10381531;28;20049;-57
2023/11/03 15:26:02;;;;;;;;;;;;;;;12.77;60.06;97586.53;10368107;28;20059;-57
2023/11/03 15:31:07;;;;;;;4.80;2.17;;;;;;;12.68;60.36;97594.69;10375306;28;20923;-60
2023/11/03 15:36:09;;;;;;;6.63;1.45;;;;;;;12.60;60.41;97600.25;10373822;28;20037;-59
2023/11/03 15:41:11;;;;;;;12.40;2.85;;;;;;;12.42;60.78;97600.00;10383759;28;20057;-56
2023/11/03 15:46:13;;;;;;;5.13;1.40;;;;;;;12.35;61.44;97611.44;10382966;28;20858;-58
2023/11/03 15:51:15;;;;;;;4.20;1.60;;;;;;;12.25;61.50;97616.34;10384819;28;20056;-58
2023/11/03 15:56:17;;;;;;;4.78;1.05;;;;;;;12.20;61.51;97616.09;10372369;28;20079;-58
2023/11/03 16:01:18;;;;;;;4.28;1.35;;;;;;;12.13;62.49;97633.91;10380207;28;20056;-55
2023/11/03 16:06:20;;;;;;;4.15;1.60;;;;;;;12.09;62.17;97633.47;10382402;28;20123;-56
2023/11/03 16:11:23;;;;;;;8.07;2.08;;;;;;;11.87;62.32;97624.72;10372762;28;20643;-57
2023/11/03 16:16:24;;;;;;;9.18;2.38;;;;;;;11.90;62.83;97648.31;10374671;28;20198;-55
2023/11/03 16:21:27;;;;;;;9.52;2.83;;;;;;;11.86;62.75;97647.06;10374740;28;20053;-55
2023/11/03 16:26:28;;;;;;;5.00;1.77;;;;;;;11.83;62.98;97655.47;10377393;28;20094;-59
2023/11/03 16:31:30;;;;;;;3.78;1.77;;;;;;;11.74;62.93;97646.78;10366597;28;21287;-61
2023/11/03 16:36:36;;;;;;;4.65;2.13;;;;;;;11.71;63.52;97662.31;10376738;28;20080;-56
2023/11/03 16:41:41;;;;;;;7.30;2.13;;;;;;;11.59;63.80;97648.72;10376896;28;20147;-56
2023/11/03 16:46:42;;;;;;;5.25;2.17;;;;;;;11.58;64.38;97666.53;10347164;28;20057;-56
2023/11/03 16:51:46;;;;;;;4.22;1.88;;;;;;;11.52;64.98;97669.97;10368283;28;20056;-57
2023/11/03 16:56:48;;;;;;;4.90;1.83;;;;;;;11.45;65.59;97674.44;10374491;28;20182;-57
2023/11/03 17:01:53;;;;;;;5.60;2.90;;;;;;;11.36;66.38;97659.59;10375507;28;20057;-56
2023/11/03 17:06:55;;;;;;;;;;;;;;;11.44;66.73;97688.75;10367049;28;20175;-56
2023/11/03 17:11:56;;;;;;;6.20;3.20;;;;;;;11.32;67.34;97685.81;10375548;28;20060;-56
2023/11/03 17:16:58;;;;;;;7.05;2.80;;;;;;;11.25;67.20;97674.25;10379640;28;20045;-56
2023/11/03 17:22:00;;;;;;;8.10;2.92;;;;;;;11.17;67.43;97679.69;10387945;28;20079;-55
2023/11/03 17:27:01;;;;;;;7.80;3.03;;;;;;;11.12;68.17;97680.28;10381008;28;20854;-56
2023/11/03 17:32:08;;;;;;;7.68;2.95;;;;;;;11.06;68.25;97689.03;10377756;28;20060;-57
2023/11/03 17:37:10;;;;;;;6.07;2.65;;;;;;;11.00;68.56;97677.28;10376745;28;20049;-56
2023/11/03 17:42:12;;;;;;;8.15;3.35;;;;;;;10.94;68.34;97678.03;10377518;28;20053;-57
2023/11/03 17:47:16;;;;;;;4.72;2.22;;;;;;;10.93;68.76;97687.06;10373187;28;20048;-57
2023/11/03 17:52:22;;;;;;;5.78;2.97;;;;;;;10.82;69.11;97688.34;10375217;28;20128;-56
2023/11/03 17:57:24;;;;;;;9.00;3.90;;;;;;;10.83;69.16;97692.69;10385150;28;20053;-56
2023/11/03 18:02:25;;;;;;;7.05;3.10;;;;;;;10.65;69.53;97678.97;10380739;28;20171;-57
2023/11/03 18:07:27;;;;;;;5.35;2.55;;;;;;;10.67;69.85;97703.53;10365308;28;20080;-57
2023/11/03 18:12:29;;;;;;;7.10;2.63;;;;;;;10.68;69.84;97705.19;10355672;28;20549;-57
2023/11/03 18:17:32;;;;;;;7.00;2.55;;;;;;;10.62;70.35;97704.09;10385789;28;21537;-57
2023/11/03 18:22:35;;;;;;;7.93;2.75;;;;;;;10.56;70.24;97703.00;10378534;28;20138;-57
2023/11/03 18:27:37;;;;;;;4.38;2.22;;;;;;;10.59;70.55;97699.97;10378105;28;20528;-56
2023/11/03 18:32:39;;;;;;;8.48;2.40;;;;;;;10.47;70.24;97690.81;10378380;28;20444;-56
2023/11/03 18:37:41;;;;;;;7.18;3.45;;;;;;;10.47;70.72;97695.31;10377140;28;20133;-55
2023/11/03 18:42:46;;;;;;;9.88;3.25;;;;;;;10.57;70.43;97704.66;10390749;28;20053;-56
2023/11/03 18:47:48;;;;;;;5.78;2.83;;;;;;;10.51;70.29;97697.44;10379027;28;20131;-59
2023/11/03 18:52:50;;;;;;;8.27;3.08;;;;;;;10.34;70.49;97703.94;10378276;28;20386;-56
2023/11/03 18:57:52;;;;;;;4.75;2.80;;;;;;;10.30;71.08;97707.94;10369039;28;20049;-57
2023/11/03 19:03:00;;;;;;;10.38;4.05;;;;;;;10.29;71.21;97716.94;10379021;28;20118;-56
2023/11/03 19:08:22;;;;;;;11.85;4.18;;;;;;;10.21;71.72;97720.53;10374256;28;20612;-58
2023/11/03 19:13:24;;;;;;;11.88;4.43;;;;;;;10.17;72.11;97724.56;10368962;28;20057;-56
2023/11/03 19:18:26;;;;;;;7.85;4.07;;;;;;;9.98;72.31;97694.00;10377782;28;20536;-56
2023/11/03 19:23:29;;;;;;;10.55;3.78;;;;;;;10.11;72.53;97726.09;10371576;28;21115;-55
2023/11/03 19:28:32;;;;;;;9.35;4.15;;;;;;;9.97;73.35;97716.25;10376071;28;20068;-56
2023/11/03 19:33:34;;;;;;;8.55;3.78;;;;;;;10.09;73.09;97738.75;10375723;28;20130;-57
2023/11/03 19:38:35;;;;;;;6.70;3.35;;;;;;;10.05;73.28;97750.75;10375548;28;20041;-57
2023/11/03 19:43:38;;;;;;;7.75;3.33;;;;;;;10.00;73.57;97750.47;10377298;28;20033;-58
2023/11/03 19:48:40;;;;;;;6.30;2.75;;;;;;;9.99;73.50;97748.81;10375762;28;20053;-57
2023/11/03 19:53:42;;;;;;;7.72;3.25;;;;;;;9.91;73.65;97742.56;10377337;28;21430;-57
2023/11/03 19:58:44;;;;;;;7.28;2.88;;;;;;;9.91;73.69;97747.88;10390045;28;20041;-57
2023/11/03 20:03:46;;;;;;;6.35;2.47;;;;;;;9.82;74.15;97748.97;10374098;28;20053;-56
2023/11/03 20:08:48;;;;;;;6.63;2.30;;;;;;;9.80;74.45;97755.47;10377326;28;20152;-56
2023/11/03 20:13:50;;;;;;;4.45;2.13;;;;;;;9.72;74.68;97753.72;10373373;28;20410;-56
2023/11/03 20:18:53;;;;;;;6.30;2.15;;;;;;;9.76;74.92;97759.47;10375806;28;20056;-56
2023/11/03 20:23:55;;;;;;;8.17;2.33;;;;;;;9.70;74.70;97750.41;10378309;28;20056;-57
2023/11/03 20:28:57;;;;;;;6.18;2.92;;;;;;;9.68;75.41;97763.88;10380132;28;20053;-58
2023/11/03 20:33:59;;;;;;;6.10;1.60;;;;;;;9.50;75.69;97740.28;10386019;28;20056;-57
2023/11/03 20:39:03;;;;;;;5.57;1.80;;;;;;;9.53;75.63;97747.88;10382215;28;20049;-58
2023/11/03 20:44:05;;;;;;;4.60;1.90;;;;;;;9.58;75.43;97759.78;10386389;28;20706;-57
2023/11/03 20:49:06;;;;;;;5.65;1.65;;;;;;;9.60;75.44;97760.47;10381377;28;20613;-56
2023/11/03 20:54:12;;;;;;;6.03;2.03;;;;;;;9.46;75.73;97757.56;10375590;28;20053;-56
2023/11/03 20:59:15;;;;;;;4.93;2.25;;;;;;;9.57;75.72;97763.47;10377286;28;20608;-57
2023/11/03 21:04:16;;;;;;;7.70;2.20;;;;;;;9.57;75.79;97766.13;10373333;28;21082;-59
2023/11/03 21:09:20;;;;;;;4.70;1.60;;;;;;;9.62;75.50;97769.06;10384613;28;20132;-57
2023/11/03 21:14:22;;;;;;;7.43;2.53;;;;;;;9.61;75.55;97768.25;10377746;28;20057;-57
2023/11/03 21:19:25;;;;;;;7.85;3.10;;;;;;;9.58;75.43;97757.97;10372543;28;20072;-57
2023/11/03 21:24:27;;;;;;;2.92;1.90;;;;;;;9.64;75.82;97769.72;10379143;28;20118;-56
2023/11/03 21:29:29;;;;;;;4.20;2.15;;;;;;;9.66;75.22;97770.38;10377604;28;20069;-56
2023/11/03 21:34:30;;;;;;;7.13;2.15;;;;;;;9.65;75.39;97768.69;10378785;28;20164;-57
2023/11/03 21:39:32;;;;;;;5.28;1.63;;;;;;;9.66;75.28;97771.19;10371229;28;20509;-56
2023/11/03 21:44:36;;;;;;;4.75;1.92;;;;;;;9.67;75.39;97766.72;10372113;28;20049;-57
2023/11/03 21:49:38;;;;;;;5.65;2.90;;;;;;;9.63;75.14;97762.75;10361925;28;20076;-56
2023/11/03 21:54:40;;;;;;;7.40;2.83;;;;;;;9.59;75.53;97759.59;10370568;28;20044;-55
2023/11/03 21:59:42;;;;;;;7.88;2.67;;;;;;;9.63;75.43;97760.09;10373849;28;20101;-56
2023/11/03 22:04:44;;;;;;;5.13;2.42;;;;;;;9.67;75.16;97774.69;10381265;28;20052;-56
2023/11/03 22:09:46;;;;;;;6.05;2.30;;;;;;;9.67;75.34;97778.16;10372652;28;20514;-56
2023/11/03 22:14:47;;;;;;;4.43;2.30;;;;;;;9.63;75.46;97770.72;10385452;28;20102;-56
2023/11/03 22:19:49;;;;;;;5.82;1.92;;;;;;;9.64;75.67;97767.06;10378481;28;20049;-56
2023/11/03 22:24:51;;;;;;;6.65;2.80;;;;;;;9.69;75.52;97775.31;10386824;28;20053;-56
2023/11/03 22:29:52;;;;;;;3.53;1.80;;;;;;;9.68;75.42;97778.97;10385758;28;20049;-55
2023/11/03 22:34:54;;;;;;;5.85;1.90;;;;;;;9.66;75.51;97781.00;10363284;28;20064;-57
2023/11/03 22:39:56;;;;;;;3.55;2.10;;;;;;;9.57;76.07;97782.06;10368948;28;20136;-57
2023/11/03 22:44:57;;;;;;;4.38;1.83;;;;;;;9.57;76.18;97790.03;10383034;28;20155;-56
2023/11/03 22:49:59;;;;;;;3.80;1.85;;;;;;;9.54;76.20;97784.03;10389608;28;20767;-57
2023/11/03 22:55:01;;;;;;;7.13;2.10;;;;;;;9.49;76.22;97797.03;10380518;28;20925;-56
2023/11/03 23:00:09;;;;;;;4.47;2.00;;;;;;;9.45;76.70;97800.22;10380845;28;20044;-57
2023/11/03 23:05:11;;;;;;;5.15;2.00;;;;;;;9.43;76.70;97803.06;10382048;28;20112;-56
2023/11/03 23:10:14;;;;;;;3.40;1.83;;;;;;;9.39;76.74;97793.78;10380656;28;20052;-57
2023/11/03 23:15:15;;;;;;;5.03;2.17;;;;;;;9.34;76.96;97796.97;10390452;28;20049;-56
2023/11/03 23:20:17;;;;;;;4.68;1.98;;;;;;;9.18;77.68;97799.72;10388886;28;20154;-60
2023/11/03 23:25:19;;;;;;;5.40;1.77;;;;;;;9.21;77.33;97804.69;10381375;28;20114;-56
2023/11/03 23:30:21;;;;;;;5.80;2.15;;;;;;;9.16;77.31;97801.75;10387958;28;20045;-57
2023/11/03 23:35:23;;;;;;;5.22;2.33;;;;;;;9.10;77.49;97803.25;10385500;28;20091;-57